TimeEDT,TemperatureF,Dew PointF,Humidity,Sea Level PressureIn,VisibilityMPH,Wind Direction,Wind SpeedMPH,Gust SpeedMPH,PrecipitationIn,Events,Conditions,WindDirDegrees,DateUTC
12:58 AM,75.9,75.9,100,30.10,10.0,NE,6.9,-,N/A,,Clear,40,2013-08-21 04:58:00
1:58 AM,76.6,76.6,100,30.09,10.0,NE,6.9,-,N/A,,Clear,50,2013-08-21 05:58:00
2:58 AM,76.8,76.8,100,30.08,10.0,NE,5.8,-,N/A,,Clear,40,2013-08-21 06:58:00
3:58 AM,76.6,76.6,100,30.07,10.0,ENE,9.2,-,N/A,,Clear,70,2013-08-21 07:58:00
4:58 AM,76.8,76.8,100,30.06,10.0,ENE,10.4,-,N/A,,Clear,70,2013-08-21 08:58:00
5:58 AM,77.2,77.2,100,30.06,10.0,East,9.2,-,N/A,,Clear,100,2013-08-21 09:58:00
6:58 AM,77.4,77.4,100,30.08,10.0,East,9.2,-,N/A,,Clear,100,2013-08-21 10:58:00
7:58 AM,78.3,78.3,100,30.09,10.0,East,5.8,-,N/A,,Clear,100,2013-08-21 11:58:00
8:58 AM,81.5,78.8,91,30.09,10.0,East,10.4,-,N/A,,Clear,100,2013-08-21 12:58:00
9:58 AM,84.0,79.2,85,30.11,10.0,ESE,11.5,-,N/A,,Clear,120,2013-08-21 13:58:00
10:58 AM,84.6,78.6,82,30.11,10.0,SE,8.1,-,N/A,,Clear,130,2013-08-21 14:58:00
11:58 AM,88.0,79.2,75,30.11,10.0,SSE,9.2,-,N/A,,Partly Cloudy,160,2013-08-21 15:58:00
12:58 PM,89.8,78.6,70,30.09,10.0,East,9.2,-,N/A,,Clear,100,2013-08-21 16:58:00
1:58 PM,91.0,78.3,66,30.07,10.0,ESE,9.2,-,N/A,,Clear,110,2013-08-21 17:58:00
2:58 PM,92.5,77.0,60,30.05,10.0,ESE,9.2,-,N/A,,Clear,120,2013-08-21 18:58:00
3:58 PM,93.7,75.6,55,30.02,10.0,ESE,5.8,-,N/A,,Clear,120,2013-08-21 19:58:00
4:44 PM,84.2,73.4,70,30.01,10.0,SE,18.4,31.1,N/A,Rain,Light Rain,130,2013-08-21 20:44:00
4:56 PM,80.6,73.4,79,30.00,10.0,ESE,15.0,-,N/A,Thunderstorm,Mostly Cloudy,110,2013-08-21 20:56:00
4:58 PM,80.6,73.4,79,30.01,10.0,ESE,12.7,-,0.01,Thunderstorm,Mostly Cloudy,120,2013-08-21 20:58:00
5:45 PM,82.4,73.4,74,30.04,10.0,East,13.8,-,N/A,Rain,Light Rain,100,2013-08-21 21:45:00
5:55 PM,82.4,73.4,74,30.07,10.0,NE,11.5,-,N/A,,Scattered Clouds,50,2013-08-21 21:55:00
5:58 PM,82.0,73.4,75,30.08,10.0,ENE,13.8,-,0.00,,Mostly Cloudy,60,2013-08-21 21:58:00
6:33 PM,78.8,71.6,78,30.08,10.0,ENE,8.1,-,N/A,,Mostly Cloudy,70,2013-08-21 22:33:00
6:48 PM,77.0,71.6,83,30.06,10.0,ENE,12.7,-,N/A,,Mostly Cloudy,70,2013-08-21 22:48:00
6:50 PM,77.0,73.4,89,30.06,10.0,ENE,13.8,-,N/A,Thunderstorm,Thunderstorm,70,2013-08-21 22:50:00
6:58 PM,77.7,73.0,85,30.07,10.0,ENE,11.5,-,N/A,Thunderstorm,Thunderstorm,60,2013-08-21 22:58:00
7:01 PM,77.0,73.4,89,30.06,10.0,NE,11.5,-,N/A,Thunderstorm,Thunderstorm,50,2013-08-21 23:01:00
7:05 PM,77.0,73.4,89,30.05,10.0,ENE,10.4,-,N/A,,Partly Cloudy,60,2013-08-21 23:05:00
7:24 PM,77.0,75.2,94,30.06,10.0,ENE,10.4,-,N/A,Rain,Light Rain,60,2013-08-21 23:24:00
7:58 PM,76.6,74.7,94,30.07,10.0,ENE,10.4,-,0.00,Rain,Light Rain,70,2013-08-21 23:58:00
8:58 PM,77.4,77.4,100,30.07,10.0,East,6.9,-,0.03,Rain,Light Rain,100,2013-08-22 00:58:00
9:58 PM,77.9,77.9,100,30.08,10.0,SE,5.8,-,0.02,Rain,Light Rain,130,2013-08-22 01:58:00
10:40 PM,77.0,77.0,100,30.08,10.0,ESE,8.1,-,N/A,,Clear,110,2013-08-22 02:40:00
10:58 PM,77.4,77.4,100,30.08,10.0,ESE,8.1,-,0.00,,Clear,110,2013-08-22 02:58:00
11:58 PM,77.9,77.9,100,30.08,10.0,East,10.4,-,N/A,,Clear,100,2013-08-22 03:58:00